createdAt,value
2023-02-21T00:01:01.941Z,100799.53
2023-02-21T00:03:28.245Z,100806.00
2023-02-21T00:05:54.652Z,100797.38
2023-02-21T00:08:21.119Z,100794.41
2023-02-21T00:10:47.434Z,100801.13
2023-02-21T00:13:13.741Z,100783.31
2023-02-21T00:15:40.052Z,100783.56
2023-02-21T00:18:06.362Z,100784.41
2023-02-21T00:20:32.658Z,100786.81
2023-02-21T00:22:58.969Z,100784.94
2023-02-21T00:25:25.708Z,100786.53
2023-02-21T00:27:52.032Z,100791.16
2023-02-21T00:30:18.504Z,100792.25
2023-02-21T00:32:44.992Z,100793.88
2023-02-21T00:35:11.656Z,100795.19
2023-02-21T00:37:37.962Z,100778.44
2023-02-21T00:40:04.888Z,100792.78
2023-02-21T00:42:31.177Z,100792.22
2023-02-21T00:44:57.480Z,100796.53
2023-02-21T00:47:23.798Z,100787.63
2023-02-21T00:49:50.104Z,100789.25
2023-02-21T00:52:16.408Z,100791.97
2023-02-21T00:54:42.710Z,100774.91
2023-02-21T00:57:09.025Z,100767.09
2023-02-21T00:59:35.348Z,100778.72
2023-02-21T01:02:01.668Z,100764.41
2023-02-21T01:04:28.009Z,100770.88
2023-02-21T01:06:54.370Z,100781.16
2023-02-21T01:09:20.689Z,100764.94
2023-02-21T01:11:46.990Z,100778.16
2023-02-21T01:14:13.781Z,100772.78
2023-02-21T01:16:40.083Z,100766.00
2023-02-21T01:19:06.412Z,100774.63
2023-02-21T01:21:32.716Z,100776.28
2023-02-21T01:23:59.064Z,100781.16
2023-02-21T01:26:25.392Z,100781.66
2023-02-21T01:28:51.706Z,100785.47
2023-02-21T01:31:21.650Z,100782.75
2023-02-21T01:33:47.952Z,100793.03
2023-02-21T01:36:14.257Z,100786.28
2023-02-21T01:38:40.628Z,100804.38
2023-02-21T01:41:07.030Z,100801.16
2023-02-21T01:43:33.351Z,100794.13
2023-02-21T01:45:59.797Z,100796.28
2023-02-21T01:48:27.581Z,100797.34
2023-02-21T01:50:56.306Z,100796.56
2023-02-21T01:53:25.687Z,100794.38
2023-02-21T01:55:52.865Z,100789.25
2023-02-21T01:58:23.243Z,100790.06
2023-02-21T02:00:49.653Z,100790.31
2023-02-21T02:03:18.956Z,100787.09
2023-02-21T02:05:49.339Z,100793.03
2023-02-21T02:08:21.266Z,100779.50
2023-02-21T02:10:57.537Z,100788.44
2023-02-21T02:13:35.493Z,100786.81
2023-02-21T02:16:28.132Z,100797.09
2023-02-21T02:19:14.873Z,100794.66
2023-02-21T02:22:14.303Z,100795.47
2023-02-21T02:24:52.791Z,100796.53
2023-02-21T02:27:30.321Z,100799.53
2023-02-21T02:30:23.293Z,100800.06
2023-02-21T02:33:08.682Z,100794.66
2023-02-21T02:35:43.720Z,100793.06
2023-02-21T02:38:19.424Z,100786.28
2023-02-21T02:41:00.152Z,100800.06
2023-02-21T02:43:42.095Z,100798.47
2023-02-21T02:46:19.283Z,100795.19
2023-02-21T02:49:12.243Z,100792.50
2023-02-21T02:51:38.680Z,100788.72
2023-02-21T02:54:05.356Z,100783.84
2023-02-21T02:56:31.776Z,100792.22
2023-02-21T02:59:11.894Z,100794.41
2023-02-21T03:01:50.425Z,100796.56
2023-02-21T03:04:45.198Z,100798.44
2023-02-21T03:07:23.456Z,100804.94
2023-02-21T03:10:13.867Z,100816.84
2023-02-21T03:13:10.414Z,100812.50
2023-02-21T03:15:51.591Z,100810.34
2023-02-21T03:18:41.108Z,100811.97
2023-02-21T03:21:13.207Z,100828.47
2023-02-21T03:23:42.059Z,100814.94
2023-02-21T03:26:11.948Z,100823.59
2023-02-21T03:28:38.408Z,100829.56
2023-02-21T03:31:07.471Z,100829.56
2023-02-21T03:33:34.278Z,100834.66
2023-02-21T03:36:02.966Z,100824.41
2023-02-21T03:38:31.020Z,100823.88
2023-02-21T03:40:57.867Z,100820.91
2023-02-21T03:43:24.238Z,100820.34
2023-02-21T03:45:50.529Z,100815.50
2023-02-21T03:48:26.099Z,100820.63
2023-02-21T03:50:57.646Z,100820.59
2023-02-21T03:53:23.958Z,100811.44
2023-02-21T03:55:50.271Z,100826.31
2023-02-21T03:58:16.673Z,100819.00
2023-02-21T04:00:43.103Z,100810.09
2023-02-21T04:03:09.692Z,100802.22
2023-02-21T04:05:35.984Z,100801.16
2023-02-21T04:08:02.906Z,100800.34
2023-02-21T04:10:29.296Z,100794.38
2023-02-21T04:12:55.679Z,100809.78
2023-02-21T04:15:22.117Z,100805.22
2023-02-21T04:17:48.431Z,100800.88
2023-02-21T04:20:15.486Z,100808.19
2023-02-21T04:22:42.451Z,100804.94
2023-02-21T04:25:09.002Z,100812.22
2023-02-21T04:27:35.285Z,100817.91
2023-02-21T04:30:02.022Z,100813.88
2023-02-21T04:32:28.382Z,100808.72
2023-02-21T04:34:54.714Z,100805.75
2023-02-21T04:37:21.037Z,100809.00
2023-02-21T04:39:47.377Z,100811.97
2023-02-21T04:42:13.706Z,100805.22
2023-02-21T04:44:40.332Z,100801.97
2023-02-21T04:47:07.964Z,100802.50
2023-02-21T04:49:34.269Z,100800.88
2023-02-21T04:52:00.592Z,100789.78
2023-02-21T04:54:26.900Z,100797.38
2023-02-21T04:56:53.328Z,100794.13
2023-02-21T04:59:19.655Z,100800.63
2023-02-21T05:01:46.111Z,100805.50
2023-02-21T05:04:13.643Z,100800.59
2023-02-21T05:06:40.037Z,100789.81
2023-02-21T05:09:06.449Z,100791.97
2023-02-21T05:11:34.364Z,100791.16
2023-02-21T05:14:00.743Z,100781.13
2023-02-21T05:16:27.175Z,100782.22
2023-02-21T05:18:53.600Z,100782.78
2023-02-21T05:21:20.336Z,100779.53
2023-02-21T05:23:47.372Z,100774.13
2023-02-21T05:26:13.798Z,100770.34
2023-02-21T05:28:41.010Z,100769.53
2023-02-21T05:31:08.175Z,100771.13
2023-02-21T05:33:34.516Z,100764.66
2023-02-21T05:36:00.979Z,100763.31
2023-02-21T05:38:27.609Z,100770.88
2023-02-21T05:40:54.251Z,100768.44
2023-02-21T05:43:20.616Z,100765.47
2023-02-21T05:45:47.000Z,100759.50
2023-02-21T05:48:13.329Z,100774.13
2023-02-21T05:50:39.699Z,100769.78
2023-02-21T05:53:06.768Z,100776.81
2023-02-21T05:55:33.100Z,100780.59
2023-02-21T05:57:59.433Z,100773.03
2023-02-21T06:00:29.442Z,100773.31
2023-02-21T06:02:56.376Z,100776.28
2023-02-21T06:05:23.184Z,100777.09
2023-02-21T06:07:49.989Z,100773.56
2023-02-21T06:10:17.464Z,100766.53
2023-02-21T06:12:43.834Z,100770.06
2023-02-21T06:15:10.382Z,100771.41
2023-02-21T06:17:37.215Z,100769.81
2023-02-21T06:20:05.615Z,100776.81
2023-02-21T06:22:32.448Z,100778.47
2023-02-21T06:24:58.952Z,100773.03
2023-02-21T06:27:25.294Z,100769.25
2023-02-21T06:29:51.595Z,100782.25
2023-02-21T06:32:18.026Z,100776.81
2023-02-21T06:34:45.150Z,100788.72
2023-02-21T06:37:11.444Z,100783.56
2023-02-21T06:39:40.676Z,100782.78
2023-02-21T06:42:07.066Z,100784.38
2023-02-21T06:44:33.412Z,100782.25
2023-02-21T06:46:59.709Z,100787.09
2023-02-21T06:49:26.022Z,100788.19
2023-02-21T06:51:52.310Z,100799.53
2023-02-21T06:54:18.620Z,100795.72
2023-02-21T06:56:44.935Z,100799.78
2023-02-21T06:59:11.246Z,100803.31
2023-02-21T07:01:37.581Z,100807.91
2023-02-21T07:04:04.226Z,100807.88
2023-02-21T07:06:30.535Z,100807.88
2023-02-21T07:08:57.138Z,100813.59
2023-02-21T07:11:23.477Z,100811.41
2023-02-21T07:13:51.489Z,100820.03
2023-02-21T07:16:18.918Z,100816.00
2023-02-21T07:18:46.162Z,100818.97
2023-02-21T07:21:14.195Z,100825.44
2023-02-21T07:23:40.660Z,100824.13
2023-02-21T07:26:07.070Z,100823.88
2023-02-21T07:28:33.389Z,100823.88
2023-02-21T07:30:59.784Z,100833.56
2023-02-21T07:33:26.096Z,100835.50
2023-02-21T07:35:52.408Z,100833.59
2023-02-21T07:38:25.916Z,100833.59
2023-02-21T07:40:55.356Z,100839.25
2023-02-21T07:43:21.759Z,100839.00
2023-02-21T07:45:48.381Z,100837.94
2023-02-21T07:48:14.747Z,100834.69
2023-02-21T07:50:42.281Z,100842.53
2023-02-21T07:53:11.120Z,100837.63
2023-02-21T07:55:37.941Z,100836.03
2023-02-21T07:58:05.277Z,100843.59
2023-02-21T08:00:32.138Z,100837.38
2023-02-21T08:02:58.755Z,100836.31
2023-02-21T08:05:25.286Z,100836.84
2023-02-21T08:07:51.748Z,100842.00
2023-02-21T08:10:26.992Z,100841.69
2023-02-21T08:12:53.359Z,100844.41
2023-02-21T08:15:19.940Z,100843.34
2023-02-21T08:17:50.365Z,100851.44
2023-02-21T08:20:17.558Z,100852.00
2023-02-21T08:22:44.233Z,100853.88
2023-02-21T08:25:12.146Z,100850.38
2023-02-21T08:27:39.689Z,100856.31
2023-02-21T08:30:07.178Z,100856.03
2023-02-21T08:32:34.681Z,100859.56
2023-02-21T08:35:01.434Z,100854.16
2023-02-21T08:37:27.718Z,100861.75
2023-02-21T08:39:54.032Z,100860.09
2023-02-21T08:42:20.546Z,100865.78
2023-02-21T08:44:47.804Z,100858.22
2023-02-21T08:47:15.955Z,100869.28
2023-02-21T08:49:47.091Z,100869.28
2023-02-21T08:52:18.301Z,100866.06
2023-02-21T08:54:45.595Z,100865.53
2023-02-21T08:57:11.933Z,100865.50
2023-02-21T08:59:44.822Z,100862.00
2023-02-21T09:02:20.292Z,100861.69
2023-02-21T09:04:47.246Z,100868.22
2023-02-21T09:07:14.809Z,100873.06
2023-02-21T09:09:41.175Z,100862.78
2023-02-21T09:12:08.237Z,100868.72
2023-02-21T09:14:39.510Z,100868.50
2023-02-21T09:17:07.933Z,100861.72
2023-02-21T09:19:34.484Z,100862.00
2023-02-21T09:22:01.844Z,100869.31
2023-02-21T09:24:28.385Z,100871.41
2023-02-21T09:26:56.755Z,100877.13
2023-02-21T09:29:23.073Z,100876.53
2023-02-21T09:31:49.574Z,100870.06
2023-02-21T09:34:16.543Z,100876.31
2023-02-21T09:36:43.115Z,100876.59
2023-02-21T09:39:09.803Z,100867.16
2023-02-21T09:41:37.449Z,100872.53
2023-02-21T09:44:07.347Z,100881.44
2023-02-21T09:46:41.079Z,100879.00
2023-02-21T09:49:20.835Z,100873.81
2023-02-21T09:51:49.992Z,100872.72
2023-02-21T09:54:26.199Z,100862.84
2023-02-21T09:56:54.231Z,100863.06
2023-02-21T09:59:20.601Z,100871.13
2023-02-21T10:01:59.483Z,100875.44
2023-02-21T10:04:38.967Z,100867.28
2023-02-21T10:07:21.812Z,100867.31
2023-02-21T10:10:11.844Z,100875.47
2023-02-21T10:12:46.184Z,100881.13
2023-02-21T10:15:21.549Z,100877.13
2023-02-21T10:18:03.341Z,100871.25
2023-02-21T10:20:39.029Z,100875.97
2023-02-21T10:23:37.331Z,100882.19
2023-02-21T10:26:08.907Z,100869.66
2023-02-21T10:28:36.664Z,100879.63
2023-02-21T10:31:09.406Z,100875.59
2023-02-21T10:33:38.368Z,100874.53
2023-02-21T10:36:18.192Z,100876.13
2023-02-21T10:38:54.866Z,100879.38
2023-02-21T10:41:22.644Z,100878.28
2023-02-21T10:43:53.648Z,100875.53
2023-02-21T10:46:23.227Z,100880.88
2023-02-21T10:48:52.958Z,100877.06
2023-02-21T10:51:31.166Z,100877.53
2023-02-21T10:54:19.130Z,100874.31
2023-02-21T10:56:45.628Z,100878.16
2023-02-21T10:59:21.158Z,100875.16
2023-02-21T11:01:47.593Z,100872.38
2023-02-21T11:04:19.784Z,100879.16
2023-02-21T11:06:57.306Z,100871.78
2023-02-21T11:09:28.044Z,100867.94
2023-02-21T11:12:20.632Z,100872.50
2023-02-21T11:14:52.989Z,100864.25
2023-02-21T11:17:23.265Z,100864.31
2023-02-21T11:19:54.531Z,100867.44
2023-02-21T11:22:34.985Z,100865.78
2023-02-21T11:25:31.993Z,100867.16
2023-02-21T11:28:06.383Z,100867.72
2023-02-21T11:30:37.074Z,100860.16
2023-02-21T11:33:04.888Z,100868.91
2023-02-21T11:35:49.416Z,100881.88
2023-02-21T11:38:40.321Z,100871.56
2023-02-21T11:41:20.634Z,100870.88
2023-02-21T11:43:49.472Z,100871.34
2023-02-21T11:46:40.645Z,100866.59
2023-02-21T11:49:49.825Z,100867.13
2023-02-21T11:52:29.625Z,100864.00
2023-02-21T11:54:55.965Z,100859.38
2023-02-21T11:57:41.151Z,100862.06
2023-02-21T12:00:23.976Z,100858.59
2023-02-21T12:03:17.173Z,100862.09
2023-02-21T12:05:57.765Z,100859.59
2023-02-21T12:08:49.928Z,100857.34
2023-02-21T12:11:28.851Z,100849.00
2023-02-21T12:14:33.266Z,100856.38
2023-02-21T12:17:05.506Z,100855.78
2023-02-21T12:20:06.726Z,100853.69
2023-02-21T12:22:42.788Z,100848.06
2023-02-21T12:25:40.203Z,100833.88
2023-02-21T12:28:28.377Z,100842.06
2023-02-21T12:31:13.413Z,100838.09
2023-02-21T12:33:58.291Z,100843.34
2023-02-21T12:36:24.555Z,100833.53
2023-02-21T12:38:57.039Z,100837.16
2023-02-21T12:42:00.670Z,100838.59
2023-02-21T12:44:41.438Z,100843.09
2023-02-21T12:47:17.547Z,100838.97
2023-02-21T12:49:58.174Z,100832.50
2023-02-21T12:52:39.302Z,100830.94
2023-02-21T12:55:16.095Z,100833.44
2023-02-21T12:58:14.797Z,100832.13
2023-02-21T13:00:54.112Z,100833.09
2023-02-21T13:03:34.858Z,100826.72
2023-02-21T13:06:18.228Z,100822.63
2023-02-21T13:08:52.814Z,100823.72
2023-02-21T13:11:29.350Z,100822.84
2023-02-21T13:13:56.370Z,100831.38
2023-02-21T13:16:23.186Z,100825.84
2023-02-21T13:18:58.907Z,100814.22
2023-02-21T13:21:37.317Z,100831.59
2023-02-21T13:24:12.852Z,100820.22
2023-02-21T13:27:15.967Z,100814.84
2023-02-21T13:29:43.007Z,100806.22
2023-02-21T13:32:15.015Z,100805.47
2023-02-21T13:34:46.460Z,100808.00
2023-02-21T13:37:22.610Z,100811.28
2023-02-21T13:39:58.289Z,100810.72
2023-02-21T13:42:27.284Z,100810.19
2023-02-21T13:45:06.611Z,100805.31
2023-02-21T13:48:01.689Z,100808.88
2023-02-21T13:50:35.677Z,100798.94
2023-02-21T13:53:20.487Z,100794.56
2023-02-21T13:55:58.721Z,100797.81
2023-02-21T13:58:39.885Z,100797.84
2023-02-21T14:01:39.942Z,100791.31
2023-02-21T14:04:43.707Z,100794.59
2023-02-21T14:07:10.013Z,100798.94
2023-02-21T14:09:40.603Z,100794.63
2023-02-21T14:12:07.587Z,100788.91
2023-02-21T14:14:39.022Z,100791.88
2023-02-21T14:17:09.231Z,100787.00
2023-02-21T14:19:48.281Z,100788.59
2023-02-21T14:22:25.127Z,100780.50
2023-02-21T14:25:03.512Z,100780.50
2023-02-21T14:27:31.201Z,100785.13
2023-02-21T14:30:00.486Z,100790.00
2023-02-21T14:32:49.460Z,100788.41
2023-02-21T14:35:46.049Z,100796.25
2023-02-21T14:38:23.653Z,100792.19
2023-02-21T14:41:14.863Z,100792.44
2023-02-21T14:44:16.464Z,100798.94
2023-02-21T14:47:08.012Z,100790.00
2023-02-21T14:50:09.725Z,100797.31
2023-02-21T14:53:03.177Z,100790.78
2023-02-21T14:56:07.607Z,100792.44
2023-02-21T14:59:15.497Z,100786.75
2023-02-21T15:02:13.489Z,100793.00
2023-02-21T15:04:48.298Z,100792.16
2023-02-21T15:07:20.444Z,100786.78
2023-02-21T15:10:24.505Z,100791.91
2023-02-21T15:12:59.793Z,100785.69
2023-02-21T15:15:29.715Z,100784.88
2023-02-21T15:18:01.218Z,100784.34
2023-02-21T15:20:27.896Z,100790.53
2023-02-21T15:23:05.281Z,100790.84
2023-02-21T15:25:31.596Z,100783.78
2023-02-21T15:28:00.319Z,100780.00
2023-02-21T15:30:36.402Z,100779.22
2023-02-21T15:33:22.979Z,100786.53
2023-02-21T15:35:56.471Z,100791.94
2023-02-21T15:38:28.891Z,100794.59
2023-02-21T15:41:00.824Z,100785.97
2023-02-21T15:43:37.889Z,100787.06
2023-02-21T15:46:07.178Z,100783.81
2023-02-21T15:48:34.923Z,100789.22
2023-02-21T15:51:07.934Z,100789.22
2023-02-21T15:53:34.270Z,100787.31
2023-02-21T15:56:20.101Z,100794.66
2023-02-21T15:59:31.538Z,100783.31
2023-02-21T16:02:14.961Z,100786.00
2023-02-21T16:04:49.278Z,100782.47
2023-02-21T16:07:33.983Z,100787.63
2023-02-21T16:10:03.754Z,100783.31
2023-02-21T16:12:35.237Z,100784.91
2023-02-21T16:15:25.199Z,100790.88
2023-02-21T16:17:54.752Z,100791.41
2023-02-21T16:20:30.007Z,100792.50
2023-02-21T16:23:24.446Z,100795.75
2023-02-21T16:25:54.814Z,100790.34
2023-02-21T16:28:21.317Z,100786.00
2023-02-21T16:30:48.168Z,100783.28
2023-02-21T16:33:14.992Z,100788.72
2023-02-21T16:35:42.164Z,100786.00
2023-02-21T16:38:16.883Z,100784.38
2023-02-21T16:40:43.231Z,100788.16
2023-02-21T16:43:17.492Z,100787.63
2023-02-21T16:45:43.876Z,100789.78
2023-02-21T16:48:16.254Z,100783.03
2023-02-21T16:50:42.544Z,100785.47
2023-02-21T16:53:11.960Z,100788.72
2023-02-21T16:55:39.292Z,100789.00
2023-02-21T16:58:11.784Z,100788.16
2023-02-21T17:00:38.201Z,100784.94
2023-02-21T17:03:04.640Z,100797.38
2023-02-21T17:05:30.985Z,100787.34
2023-02-21T17:07:57.409Z,100796.03
2023-02-21T17:10:24.148Z,100795.75
2023-02-21T17:12:50.449Z,100797.38
2023-02-21T17:15:16.757Z,100800.34
2023-02-21T17:17:48.466Z,100801.41
2023-02-21T17:20:18.892Z,100799.53
2023-02-21T17:22:45.385Z,100799.53
2023-02-21T17:25:11.761Z,100803.88
2023-02-21T17:27:38.085Z,100807.38
2023-02-21T17:30:05.504Z,100810.34
2023-02-21T17:32:31.956Z,100809.00
2023-02-21T17:34:58.394Z,100809.25
2023-02-21T17:37:24.698Z,100799.25
2023-02-21T17:39:55.990Z,100804.38
2023-02-21T17:42:23.229Z,100809.78
2023-02-21T17:44:49.766Z,100815.22
2023-02-21T17:47:18.773Z,100808.72
2023-02-21T17:49:48.049Z,100802.53
2023-02-21T17:52:15.101Z,100801.41
2023-02-21T17:54:41.868Z,100809.00
2023-02-21T17:57:08.977Z,100805.75
2023-02-21T17:59:36.456Z,100803.84
2023-02-21T18:02:03.355Z,100808.72
2023-02-21T18:04:29.819Z,100810.34
2023-02-21T18:06:56.217Z,100813.06
2023-02-21T18:09:22.779Z,100810.88
2023-02-21T18:11:50.425Z,100812.50
2023-02-21T18:14:17.516Z,100817.09
2023-02-21T18:16:43.959Z,100822.22
2023-02-21T18:19:10.274Z,100817.38
2023-02-21T18:21:36.703Z,100807.09
2023-02-21T18:24:03.013Z,100820.06
2023-02-21T18:26:29.308Z,100811.41
2023-02-21T18:28:55.621Z,100814.66
2023-02-21T18:31:21.923Z,100820.09
2023-02-21T18:33:49.007Z,100816.31
2023-02-21T18:36:15.329Z,100816.81
2023-02-21T18:38:41.711Z,100810.88
2023-02-21T18:41:13.655Z,100808.16
2023-02-21T18:43:40.809Z,100811.41
2023-02-21T18:46:12.453Z,100808.16
2023-02-21T18:48:41.830Z,100810.34
2023-02-21T18:51:10.179Z,100818.41
2023-02-21T18:53:36.908Z,100819.22
2023-02-21T18:56:05.712Z,100816.28
2023-02-21T18:58:32.764Z,100811.97
2023-02-21T19:00:59.102Z,100814.91
2023-02-21T19:03:25.475Z,100816.81
2023-02-21T19:05:51.797Z,100814.66
2023-02-21T19:08:18.606Z,100811.13
2023-02-21T19:10:45.697Z,100813.03
2023-02-21T19:13:12.031Z,100808.16
2023-02-21T19:15:38.358Z,100803.03
2023-02-21T19:18:04.736Z,100808.19
2023-02-21T19:20:31.070Z,100801.44
2023-02-21T19:22:57.420Z,100800.59
2023-02-21T19:25:24.913Z,100796.28
2023-02-21T19:27:51.216Z,100790.59
2023-02-21T19:30:19.062Z,100800.06
2023-02-21T19:32:45.692Z,100801.69
2023-02-21T19:35:12.010Z,100794.13
2023-02-21T19:37:38.304Z,100801.69
2023-02-21T19:40:06.809Z,100796.28
2023-02-21T19:42:35.162Z,100795.72
2023-02-21T19:45:01.593Z,100796.28
2023-02-21T19:47:29.579Z,100801.69
2023-02-21T19:49:56.182Z,100798.72
2023-02-21T19:52:22.514Z,100791.97
2023-02-21T19:54:48.818Z,100798.97
2023-02-21T19:57:15.114Z,100796.28
2023-02-21T19:59:41.434Z,100802.22
2023-02-21T20:02:10.990Z,100801.44
2023-02-21T20:04:37.298Z,100796.81
2023-02-21T20:07:03.711Z,100796.53
2023-02-21T20:09:30.042Z,100790.63
2023-02-21T20:11:56.350Z,100790.34
2023-02-21T20:14:22.659Z,100791.97
2023-02-21T20:16:49.073Z,100795.72
2023-02-21T20:19:15.428Z,100792.47
2023-02-21T20:21:42.107Z,100793.28
2023-02-21T20:24:08.557Z,100787.63
2023-02-21T20:26:34.950Z,100786.56
2023-02-21T20:29:01.636Z,100789.53
2023-02-21T20:31:30.252Z,100787.06
2023-02-21T20:33:56.861Z,100781.69
2023-02-21T20:36:28.287Z,100784.94
2023-02-21T20:38:54.641Z,100782.50
2023-02-21T20:41:21.036Z,100786.53
2023-02-21T20:43:47.418Z,100787.34
2023-02-21T20:46:13.758Z,100790.06
2023-02-21T20:48:40.080Z,100782.22
2023-02-21T20:51:06.392Z,100789.78
2023-02-21T20:53:32.819Z,100780.59
2023-02-21T20:55:59.122Z,100781.69
2023-02-21T20:58:25.940Z,100775.72
2023-02-21T21:00:52.241Z,100777.06
2023-02-21T21:03:18.704Z,100771.94
2023-02-21T21:05:45.971Z,100776.53
2023-02-21T21:08:12.284Z,100776.81
2023-02-21T21:10:38.624Z,100772.50
2023-02-21T21:13:05.272Z,100770.34
2023-02-21T21:15:31.579Z,100777.66
2023-02-21T21:17:57.940Z,100777.66
2023-02-21T21:20:25.637Z,100773.56
2023-02-21T21:22:51.993Z,100767.09
2023-02-21T21:25:18.717Z,100763.31
2023-02-21T21:27:45.393Z,100754.66
2023-02-21T21:30:13.387Z,100754.66
2023-02-21T21:32:40.478Z,100756.28
2023-02-21T21:35:07.215Z,100750.06
2023-02-21T21:37:35.091Z,100759.53
2023-02-21T21:40:01.463Z,100756.28
2023-02-21T21:42:28.896Z,100756.56
2023-02-21T21:44:56.645Z,100752.22
2023-02-21T21:47:29.096Z,100753.56
2023-02-21T21:49:55.432Z,100751.94
2023-02-21T21:52:22.246Z,100748.69
2023-02-21T21:54:48.558Z,100753.28
2023-02-21T21:57:16.652Z,100749.53
2023-02-21T21:59:43.741Z,100745.44
2023-02-21T22:02:11.693Z,100742.75
2023-02-21T22:04:38.538Z,100737.34
2023-02-21T22:07:06.680Z,100738.16
2023-02-21T22:09:33.217Z,100730.88
2023-02-21T22:11:59.499Z,100739.75
2023-02-21T22:14:25.799Z,100733.56
2023-02-21T22:16:53.546Z,100729.22
2023-02-21T22:19:21.767Z,100732.22
2023-02-21T22:21:48.929Z,100739.50
2023-02-21T22:24:16.588Z,100734.63
2023-02-21T22:26:43.221Z,100730.06
2023-02-21T22:29:09.501Z,100736.25
2023-02-21T22:31:35.858Z,100727.63
2023-02-21T22:34:02.332Z,100733.56
2023-02-21T22:36:31.702Z,100727.34
2023-02-21T22:38:58.280Z,100728.44
2023-02-21T22:41:29.292Z,100727.88
2023-02-21T22:43:55.721Z,100722.75
2023-02-21T22:46:24.776Z,100717.88
2023-02-21T22:48:51.287Z,100720.56
2023-02-21T22:51:18.923Z,100716.81
2023-02-21T22:53:48.091Z,100712.22
2023-02-21T22:56:14.520Z,100713.03
2023-02-21T22:58:40.834Z,100703.88
2023-02-21T23:01:07.170Z,100711.41
2023-02-21T23:03:37.163Z,100694.41
2023-02-21T23:06:04.451Z,100691.41
2023-02-21T23:08:30.772Z,100687.66
2023-02-21T23:10:57.113Z,100681.41
2023-02-21T23:13:24.442Z,100679.00
2023-02-21T23:15:51.333Z,100673.06
2023-02-21T23:18:19.090Z,100671.97
2023-02-21T23:20:46.228Z,100668.72
2023-02-21T23:23:12.722Z,100671.69
2023-02-21T23:25:39.070Z,100658.47
2023-02-21T23:28:08.542Z,100660.34
2023-02-21T23:30:37.429Z,100660.34
2023-02-21T23:33:03.898Z,100657.66
2023-02-21T23:35:30.212Z,100647.66
2023-02-21T23:37:56.540Z,100644.41
2023-02-21T23:40:24.145Z,100639.81
2023-02-21T23:42:53.242Z,100643.88
2023-02-21T23:45:21.463Z,100637.38
2023-02-21T23:47:52.357Z,100640.09
2023-02-21T23:50:21.337Z,100636.31
2023-02-21T23:52:52.890Z,100643.06
2023-02-21T23:55:21.537Z,100637.41
2023-02-21T23:57:47.837Z,100636.31
